Time;durP1;ratioP1;P1;durP2;ratioP2;P2;SDS_P1;SDS_P2;PMS_P1;PMS_P2;Temp;Humidity;BMP_temperature;BMP_pressure;BME280_temperature;BME280_humidity;BME280_pressure;Samples;Min_cycle;Max_cycle;Signal;HPM_P1;HPM_P2
2021/08/20 00:01:16;;;;;;;5.50;2.72;;;;;;;18.52;39.66;93886.94;4972670;28;20056;-73
2021/08/20 00:03:42;;;;;;;4.95;3.05;;;;;;;18.53;39.79;93883.09;4975685;28;20696;-73
2021/08/20 00:06:07;;;;;;;5.47;2.72;;;;;;;18.47;39.72;93876.47;4974243;28;20034;-73
2021/08/20 00:08:33;;;;;;;6.32;2.88;;;;;;;18.54;41.14;93879.28;4971319;28;20041;-76
2021/08/20 00:11:03;;;;;;;4.25;2.35;;;;;;;18.54;40.31;93868.50;4972445;28;20034;-73
2021/08/20 00:13:28;;;;;;;7.88;2.53;;;;;;;18.42;39.87;93890.25;4976886;28;20592;-73
2021/08/20 00:15:54;;;;;;;2.90;2.08;;;;;;;18.33;39.75;93870.88;4989170;28;20046;-73
2021/08/20 00:18:19;;;;;;;4.15;2.63;;;;;;;18.40;38.69;93877.13;4970592;28;20061;-74
2021/08/20 00:20:45;;;;;;;6.20;2.53;;;;;;;18.31;38.93;93879.28;4969142;28;20513;-74
2021/08/20 00:23:10;;;;;;;4.65;2.47;;;;;;;18.49;38.79;93882.25;4973380;28;20034;-73
2021/08/20 00:25:35;;;;;;;6.22;2.33;;;;;;;18.28;41.46;93874.66;4972389;28;20305;-74
2021/08/20 00:28:01;;;;;;;2.80;2.33;;;;;;;18.18;40.19;93874.47;4971497;28;20046;-73
2021/08/20 00:30:26;;;;;;;5.43;2.58;;;;;;;18.23;41.15;93887.63;4976168;28;20039;-73
2021/08/20 00:32:51;;;;;;;8.05;2.60;;;;;;;18.23;42.47;93876.84;4972766;28;20055;-73
2021/08/20 00:35:17;;;;;;;3.47;2.60;;;;;;;18.07;42.11;93874.28;4968819;28;20462;-73
2021/08/20 00:37:42;;;;;;;3.38;2.47;;;;;;;18.15;41.48;93875.94;4970705;28;20041;-74
2021/08/20 00:40:08;;;;;;;4.53;2.40;;;;;;;18.31;42.09;93889.28;4977400;28;20064;-75
2021/08/20 00:42:34;;;;;;;3.30;2.58;;;;;;;18.40;41.14;93890.59;4974725;28;20034;-73
2021/08/20 00:44:59;;;;;;;4.55;2.70;;;;;;;18.33;41.88;93885.09;4970171;28;20027;-73
2021/08/20 00:47:25;;;;;;;4.32;2.83;;;;;;;18.30;41.61;93877.75;4970681;28;20539;-75
2021/08/20 00:49:51;;;;;;;4.70;2.55;;;;;;;18.24;42.03;93871.09;4972113;28;20034;-75
2021/08/20 00:52:18;;;;;;;9.73;3.05;;;;;;;18.32;42.08;93880.09;4976121;28;20030;-73
2021/08/20 00:54:43;;;;;;;3.80;2.60;;;;;;;18.36;40.59;93887.06;4971258;28;20061;-73
2021/08/20 00:57:09;;;;;;;4.05;2.92;;;;;;;18.38;41.47;93886.72;4973182;28;20134;-73
2021/08/20 00:59:34;;;;;;;4.88;3.13;;;;;;;18.24;41.61;93870.31;4970575;28;20030;-74
2021/08/20 01:02:01;;;;;;;4.70;3.40;;;;;;;18.29;42.47;93886.16;4971724;28;20092;-74
2021/08/20 01:04:27;;;;;;;5.53;2.72;;;;;;;18.10;42.48;93872.75;4974028;28;20034;-73
2021/08/20 01:06:56;;;;;;;4.15;3.40;;;;;;;18.30;42.52;93887.72;4971762;28;20230;-73
2021/08/20 01:09:22;;;;;;;7.25;4.50;;;;;;;18.32;42.69;93882.78;4972218;28;20054;-73
2021/08/20 01:11:52;;;;;;;3.78;3.45;;;;;;;18.38;42.97;93887.47;4972702;28;20041;-75
2021/08/20 01:14:50;;;;;;;7.25;4.00;;;;;;;18.41;43.30;93888.69;4972407;28;20030;-73
2021/08/20 01:17:16;;;;;;;7.20;3.80;;;;;;;18.32;43.51;93882.78;4950998;28;21000;-73
2021/08/20 01:19:41;;;;;;;6.63;3.95;;;;;;;18.33;43.70;93889.72;4970911;28;20069;-73
2021/08/20 01:22:08;;;;;;;4.78;3.92;;;;;;;18.17;44.11;93868.31;4973537;28;20409;-73
2021/08/20 01:24:33;;;;;;;6.60;4.28;;;;;;;18.40;43.37;93882.53;4971639;28;20683;-73
2021/08/20 01:26:59;;;;;;;5.63;4.63;;;;;;;18.29;43.88;93864.63;4974185;28;20460;-74
2021/08/20 01:29:24;;;;;;;4.38;3.80;;;;;;;18.42;44.11;93884.88;4969780;28;20252;-73
2021/08/20 01:31:51;;;;;;;5.35;3.75;;;;;;;18.44;44.38;93879.88;4974940;28;20033;-74
2021/08/20 01:34:17;;;;;;;5.97;3.97;;;;;;;18.29;44.68;93854.63;4973309;28;20401;-74
2021/08/20 01:36:42;;;;;;;9.05;4.60;;;;;;;18.21;45.09;93873.72;4967193;28;20031;-73
2021/08/20 01:39:08;;;;;;;7.80;4.47;;;;;;;18.28;44.34;93881.94;4968498;28;20038;-73
2021/08/20 01:41:37;;;;;;;7.10;4.22;;;;;;;18.36;44.58;93876.31;4976346;28;20543;-73
2021/08/20 01:44:03;;;;;;;9.20;4.80;;;;;;;18.34;44.74;93883.16;4975194;28;20026;-73
2021/08/20 01:46:30;;;;;;;9.27;4.60;;;;;;;18.32;44.31;93886.25;4970543;28;20031;-75
2021/08/20 01:48:58;;;;;;;5.25;4.10;;;;;;;18.31;44.91;93878.50;4969827;28;20039;-73
2021/08/20 01:51:25;;;;;;;6.57;4.50;;;;;;;18.18;44.98;93871.78;4972151;28;20061;-73
2021/08/20 01:53:55;;;;;;;6.10;4.63;;;;;;;18.21;45.17;93879.13;4973276;28;20530;-74
2021/08/20 01:56:25;;;;;;;4.75;4.20;;;;;;;18.16;45.14;93874.03;4972211;28;20038;-74
2021/08/20 01:58:52;;;;;;;7.63;5.07;;;;;;;17.97;45.00;93843.34;4972978;28;20137;-73
2021/08/20 02:01:17;;;;;;;5.20;4.32;;;;;;;18.23;45.05;93879.53;4972934;28;20026;-74
2021/08/20 02:03:43;;;;;;;5.25;3.97;;;;;;;18.30;45.54;93877.75;4975354;28;20088;-73
2021/08/20 02:06:09;;;;;;;6.28;5.05;;;;;;;18.25;45.39;93886.13;4970146;28;20510;-74
2021/08/20 02:08:35;;;;;;;9.40;5.13;;;;;;;18.26;45.69;93876.13;4971740;28;20513;-76
2021/08/20 02:11:00;;;;;;;7.57;4.63;;;;;;;18.16;46.44;93871.34;4974124;28;20030;-74
2021/08/20 02:13:27;;;;;;;7.57;4.88;;;;;;;18.32;45.80;93880.84;4978093;28;20476;-73
2021/08/20 02:15:53;;;;;;;5.07;4.53;;;;;;;18.40;45.90;93884.44;4975374;28;20097;-75
2021/08/20 02:18:18;;;;;;;6.10;4.65;;;;;;;18.38;46.19;93878.66;4977088;28;20034;-73
2021/08/20 02:20:44;;;;;;;6.22;5.10;;;;;;;18.32;45.91;93872.00;4976870;28;20030;-73
2021/08/20 02:23:10;;;;;;;6.00;4.50;;;;;;;18.61;45.97;93882.09;4976233;28;20045;-74
2021/08/20 02:25:36;;;;;;;6.32;4.32;;;;;;;18.70;46.09;93879.94;4978189;28;20038;-73
2021/08/20 02:28:02;;;;;;;5.30;4.55;;;;;;;18.42;46.71;93874.09;4977752;28;20099;-74
2021/08/20 02:30:28;;;;;;;4.82;4.20;;;;;;;18.50;46.30;93881.13;4975844;28;20501;-74
2021/08/20 02:32:54;;;;;;;8.30;4.63;;;;;;;18.54;46.13;93876.56;4975923;28;20053;-74
2021/08/20 02:35:19;;;;;;;6.43;4.18;;;;;;;18.51;45.91;93857.69;4973980;28;20092;-73
2021/08/20 02:37:44;;;;;;;6.50;4.57;;;;;;;18.55;46.18;93875.44;4974865;28;20041;-74
2021/08/20 02:40:10;;;;;;;6.28;4.45;;;;;;;18.47;46.32;93876.47;4975582;28;20117;-74
2021/08/20 02:42:36;;;;;;;5.20;4.10;;;;;;;18.26;47.33;93884.19;4973731;28;20113;-73
2021/08/20 02:45:01;;;;;;;8.63;5.13;;;;;;;18.02;47.10;93869.19;4974087;28;20076;-73
2021/08/20 02:47:27;;;;;;;7.35;4.68;;;;;;;18.07;46.90;93879.66;4974109;28;20121;-73
2021/08/20 02:49:52;;;;;;;6.82;5.28;;;;;;;18.13;47.29;93885.53;4990467;28;20026;-74
2021/08/20 02:52:17;;;;;;;7.55;5.68;;;;;;;18.12;46.66;93890.13;4975871;28;20125;-73
2021/08/20 02:54:43;;;;;;;6.10;4.43;;;;;;;18.15;46.93;93881.31;4977344;28;20046;-73
2021/08/20 02:57:08;;;;;;;6.45;4.78;;;;;;;18.09;47.06;93871.97;4975710;28;21272;-73
2021/08/20 02:59:33;;;;;;;10.40;5.68;;;;;;;18.24;46.36;93886.47;4974710;28;20038;-73
2021/08/20 03:01:59;;;;;;;6.32;4.47;;;;;;;18.19;46.35;93876.00;4974722;28;20022;-75
2021/08/20 03:04:25;;;;;;;7.32;4.95;;;;;;;18.08;46.57;93875.06;4976509;28;20026;-73
2021/08/20 03:06:52;;;;;;;7.30;4.65;;;;;;;18.10;47.02;93888.91;4975306;28;20042;-75
2021/08/20 03:09:18;;;;;;;6.72;5.07;;;;;;;18.21;46.34;93889.88;4974142;28;20050;-73
2021/08/20 03:11:45;;;;;;;7.15;4.60;;;;;;;18.11;46.56;93879.72;4974876;28;20592;-74
2021/08/20 03:14:11;;;;;;;5.70;4.75;;;;;;;18.12;46.35;93883.97;4972725;28;20126;-73
2021/08/20 03:16:37;;;;;;;7.25;4.50;;;;;;;17.97;46.93;93875.66;4975273;28;20380;-73
2021/08/20 03:19:02;;;;;;;6.15;5.00;;;;;;;18.10;46.83;93883.53;4971300;28;20303;-74
2021/08/20 03:21:27;;;;;;;13.32;5.07;;;;;;;18.01;46.68;93873.78;4974552;28;20622;-73
2021/08/20 03:23:53;;;;;;;8.25;4.63;;;;;;;17.87;46.85;93865.44;4972779;28;20042;-73
2021/08/20 03:26:19;;;;;;;6.47;4.65;;;;;;;17.96;46.27;93867.91;4973784;28;20062;-74
2021/08/20 03:28:44;;;;;;;8.48;4.97;;;;;;;18.05;46.39;93892.69;4973496;28;20034;-74
2021/08/20 03:31:10;;;;;;;5.70;4.28;;;;;;;17.99;45.72;93886.81;4972572;28;20398;-75
2021/08/20 03:33:35;;;;;;;7.65;4.60;;;;;;;17.86;46.04;93906.91;4971981;28;20066;-73
2021/08/20 03:36:00;;;;;;;10.30;4.25;;;;;;;17.79;46.83;93900.66;4973045;28;20034;-75
2021/08/20 03:38:26;;;;;;;5.35;4.78;;;;;;;17.61;47.27;93901.06;4974003;28;20061;-74
2021/08/20 03:40:51;;;;;;;7.82;4.53;;;;;;;17.71;46.82;93897.03;4973964;28;20128;-74
2021/08/20 03:43:17;;;;;;;5.55;4.63;;;;;;;17.70;47.54;93908.91;4988137;28;20515;-73
2021/08/20 03:45:42;;;;;;;9.23;4.82;;;;;;;17.71;47.38;93915.84;4967003;28;20054;-75
2021/08/20 03:48:07;;;;;;;7.03;4.75;;;;;;;17.67;47.69;93923.09;4973835;28;20042;-73
2021/08/20 03:50:33;;;;;;;7.05;5.07;;;;;;;17.52;47.93;93915.88;4971943;28;20037;-74
2021/08/20 03:52:58;;;;;;;6.22;4.35;;;;;;;17.67;47.47;93914.22;4973824;28;20516;-74
2021/08/20 03:55:24;;;;;;;9.15;5.10;;;;;;;17.66;47.28;93908.06;4974637;28;20025;-73
2021/08/20 03:57:52;;;;;;;10.32;5.60;;;;;;;17.63;47.57;93908.00;4975701;28;20611;-73
2021/08/20 04:00:18;;;;;;;7.07;4.72;;;;;;;17.89;47.37;93930.41;4971260;28;20129;-74
2021/08/20 04:02:43;;;;;;;6.95;4.25;;;;;;;17.96;46.84;93929.81;4973745;28;20042;-73
2021/08/20 04:05:09;;;;;;;8.60;5.63;;;;;;;17.87;46.50;93919.25;4970960;28;20117;-73
2021/08/20 04:07:34;;;;;;;6.95;5.05;;;;;;;17.90;45.77;93926.59;4971752;28;20068;-76
2021/08/20 04:10:00;;;;;;;8.48;4.90;;;;;;;17.96;44.85;93927.91;4972503;28;20077;-73
2021/08/20 04:12:25;;;;;;;6.72;4.35;;;;;;;18.03;44.49;93928.03;4972518;28;20047;-73
2021/08/20 04:14:51;;;;;;;7.38;4.25;;;;;;;18.02;44.21;93934.56;4971217;28;20050;-75
2021/08/20 04:17:16;;;;;;;6.43;4.90;;;;;;;18.01;43.99;93924.91;4972045;28;20122;-73
2021/08/20 04:19:41;;;;;;;9.35;4.72;;;;;;;18.15;43.67;93945.91;4972436;28;20046;-74
2021/08/20 04:22:07;;;;;;;7.47;4.80;;;;;;;18.08;43.69;93926.19;4972951;28;20034;-74
2021/08/20 04:24:32;;;;;;;6.82;4.32;;;;;;;18.11;43.56;93928.16;4973163;28;20105;-73
2021/08/20 04:26:58;;;;;;;5.18;4.30;;;;;;;18.28;43.03;93933.09;4973474;28;20575;-75
2021/08/20 04:29:23;;;;;;;5.78;4.05;;;;;;;18.37;42.85;93939.00;4972801;28;20578;-73
2021/08/20 04:31:49;;;;;;;8.63;5.13;;;;;;;18.30;42.71;93925.41;4972703;28;20472;-74
2021/08/20 04:34:14;;;;;;;8.32;4.50;;;;;;;18.36;43.13;93937.44;4976251;28;20040;-73
2021/08/20 04:36:39;;;;;;;11.35;4.70;;;;;;;18.44;42.85;93931.81;4976474;28;20042;-73
2021/08/20 04:39:05;;;;;;;7.28;4.10;;;;;;;18.42;42.85;93949.47;4973942;28;20066;-73
2021/08/20 04:41:30;;;;;;;4.40;3.67;;;;;;;18.42;42.42;93952.19;4974414;28;20051;-73
2021/08/20 04:43:57;;;;;;;5.55;4.15;;;;;;;18.42;42.50;93952.97;4973938;28;20112;-73
2021/08/20 04:46:26;;;;;;;13.15;4.80;;;;;;;18.40;42.13;93951.75;4974527;28;20026;-73
2021/08/20 04:48:51;;;;;;;11.52;4.88;;;;;;;18.46;41.83;93950.31;4973082;28;20046;-74
2021/08/20 04:51:17;;;;;;;5.85;4.32;;;;;;;18.47;41.80;93949.19;4974420;28;20034;-73
2021/08/20 04:53:42;;;;;;;7.03;4.95;;;;;;;18.42;42.47;93965.66;4973585;28;20543;-73
2021/08/20 04:56:08;;;;;;;12.63;5.63;;;;;;;18.43;42.50;93956.44;4990745;28;20042;-74
2021/08/20 04:58:35;;;;;;;10.32;5.25;;;;;;;18.31;42.59;93948.50;4973270;28;20030;-74
2021/08/20 05:01:01;;;;;;;13.25;4.90;;;;;;;18.38;42.75;93970.94;4976001;28;20341;-73
2021/08/20 05:03:26;;;;;;;7.97;5.32;;;;;;;18.45;42.72;93960.31;4972456;28;20404;-74
2021/08/20 05:05:52;;;;;;;10.95;5.75;;;;;;;18.37;42.65;93941.69;4973877;28;20504;-72
2021/08/20 05:08:17;;;;;;;14.57;5.32;;;;;;;18.61;42.28;93957.50;4969977;28;20058;-73
2021/08/20 05:10:43;;;;;;;9.45;5.10;;;;;;;18.68;42.30;93951.44;4975575;28;20053;-74
2021/08/20 05:13:08;;;;;;;10.05;5.68;;;;;;;18.80;42.22;93960.16;4971492;28;20062;-73
2021/08/20 05:15:34;;;;;;;9.68;5.50;;;;;;;18.77;42.52;93960.84;4972191;28;20080;-74
2021/08/20 05:18:01;;;;;;;7.93;5.20;;;;;;;18.80;42.43;93949.38;4969870;28;20050;-74
2021/08/20 05:20:27;;;;;;;8.93;5.15;;;;;;;19.06;42.20;93953.22;4974715;28;20047;-73
2021/08/20 05:22:53;;;;;;;16.80;6.10;;;;;;;19.22;41.91;93953.81;4971587;28;20035;-74
2021/08/20 05:25:21;;;;;;;8.50;5.05;;;;;;;19.31;41.31;93962.47;4974612;28;20420;-74
2021/08/20 05:27:47;;;;;;;9.88;5.60;;;;;;;19.26;41.62;93960.06;4976446;28;20418;-75
2021/08/20 05:30:15;;;;;;;16.23;5.93;;;;;;;19.35;41.38;93960.59;4972610;28;20030;-73
2021/08/20 05:32:41;;;;;;;11.18;5.93;;;;;;;19.49;41.67;93971.59;4976189;28;20451;-73
2021/08/20 05:35:09;;;;;;;12.00;6.72;;;;;;;19.50;41.02;93959.66;4973631;28;20031;-74
2021/08/20 05:37:34;;;;;;;8.98;5.72;;;;;;;19.57;41.34;93964.34;4976874;28;20481;-73
2021/08/20 05:40:00;;;;;;;15.57;6.03;;;;;;;19.52;41.60;93959.28;4972168;28;20148;-73
2021/08/20 05:42:27;;;;;;;10.63;5.80;;;;;;;19.34;41.42;93961.72;4974061;28;20506;-74
2021/08/20 05:44:52;;;;;;;11.70;5.85;;;;;;;19.41;41.16;93961.78;4975993;28;20046;-73
2021/08/20 05:47:18;;;;;;;13.13;6.20;;;;;;;19.49;42.29;93973.50;4974934;28;20415;-73
2021/08/20 05:49:43;;;;;;;9.40;6.20;;;;;;;19.52;41.52;93956.56;4975740;28;20084;-74
2021/08/20 05:52:09;;;;;;;15.88;5.88;;;;;;;19.62;41.08;93972.91;4976580;28;20410;-73
2021/08/20 05:54:35;;;;;;;13.20;6.68;;;;;;;19.74;40.91;93972.69;4979051;28;20049;-74
2021/08/20 05:57:00;;;;;;;11.05;5.60;;;;;;;19.75;41.42;93974.22;4976827;28;20079;-73
2021/08/20 05:59:26;;;;;;;8.93;5.75;;;;;;;19.86;41.45;93968.19;4979498;28;20045;-73
2021/08/20 06:01:52;;;;;;;11.52;5.93;;;;;;;19.69;41.42;93962.22;4992278;28;20038;-74
2021/08/20 06:04:17;;;;;;;8.00;6.57;;;;;;;19.79;41.69;93976.19;4980250;28;20076;-74
2021/08/20 06:06:43;;;;;;;11.55;6.45;;;;;;;19.94;42.12;93977.94;4975392;28;20050;-73
2021/08/20 06:09:08;;;;;;;12.32;6.00;;;;;;;19.94;41.96;93973.31;4974916;28;20552;-74
2021/08/20 06:11:34;;;;;;;10.48;5.68;;;;;;;20.07;42.12;93963.03;4976741;28;20030;-73
2021/08/20 06:13:59;;;;;;;12.93;6.85;;;;;;;20.08;42.08;93965.38;4979342;28;20117;-73
2021/08/20 06:16:25;;;;;;;12.88;6.05;;;;;;;19.93;42.47;93965.56;4974513;28;20461;-73
2021/08/20 06:18:51;;;;;;;25.92;7.18;;;;;;;20.22;43.55;93974.78;4978627;28;20046;-73
2021/08/20 06:21:16;;;;;;;12.45;7.45;;;;;;;20.28;42.24;93966.00;4975987;28;20121;-75
2021/08/20 06:23:42;;;;;;;15.65;6.95;;;;;;;20.35;42.43;93971.47;4976493;28;20105;-74
2021/08/20 06:26:07;;;;;;;16.42;7.07;;;;;;;20.45;42.23;93949.19;4976860;28;20197;-74
2021/08/20 06:28:34;;;;;;;11.82;6.47;;;;;;;20.47;42.17;93946.13;4978918;28;20030;-74
2021/08/20 06:31:03;;;;;;;14.68;7.90;;;;;;;20.34;41.83;93964.50;4990699;28;20049;-74
2021/08/20 06:33:33;;;;;;;13.07;7.68;;;;;;;20.36;42.21;93964.13;4977056;28;20034;-74
2021/08/20 06:35:59;;;;;;;10.35;7.28;;;;;;;20.50;42.45;93970.44;4973947;28;20667;-74
2021/08/20 06:38:25;;;;;;;14.38;7.30;;;;;;;20.46;42.50;93966.94;4975200;28;20046;-76
2021/08/20 06:40:51;;;;;;;17.17;7.90;;;;;;;20.52;42.54;93959.28;4974292;28;20088;-74
2021/08/20 06:43:16;;;;;;;19.20;7.38;;;;;;;20.82;42.18;93964.56;4973428;28;20120;-74
2021/08/20 06:45:42;;;;;;;13.10;7.35;;;;;;;20.94;42.08;93964.28;4974290;28;20501;-73
2021/08/20 06:48:07;;;;;;;12.68;7.25;;;;;;;21.12;41.44;93969.84;4974627;28;20068;-74
2021/08/20 06:50:33;;;;;;;16.27;7.95;;;;;;;21.18;42.20;93969.09;4973224;28;20043;-73
2021/08/20 06:52:58;;;;;;;16.42;8.05;;;;;;;21.24;42.20;93961.41;4973614;28;20034;-74
2021/08/20 06:55:24;;;;;;;13.07;7.00;;;;;;;21.38;42.52;93973.09;4978318;28;20022;-73
2021/08/20 06:57:49;;;;;;;12.48;6.70;;;;;;;21.51;42.84;93968.13;4973712;28;20050;-75
2021/08/20 07:00:17;;;;;;;17.42;6.20;;;;;;;21.61;41.83;93962.03;4972341;28;20739;-74
2021/08/20 07:02:46;;;;;;;8.35;6.28;;;;;;;21.60;42.50;93965.16;4965633;28;20045;-75
2021/08/20 07:05:13;;;;;;;9.13;5.88;;;;;;;21.80;42.37;93969.13;4956034;28;20042;-74
2021/08/20 07:07:39;;;;;;;8.32;5.50;;;;;;;21.74;42.20;93968.69;4970907;28;20636;-74
2021/08/20 07:10:09;;;;;;;9.57;5.45;;;;;;;21.79;41.85;93973.75;4970716;28;20286;-74
2021/08/20 07:12:34;;;;;;;10.70;5.30;;;;;;;21.53;42.42;93965.06;4969248;28;20400;-74
2021/08/20 07:14:59;;;;;;;11.20;5.63;;;;;;;21.60;42.08;93967.84;4971227;28;20054;-74
2021/08/20 07:17:25;;;;;;;10.23;4.55;;;;;;;21.77;43.66;93946.28;4971885;28;20050;-74
2021/08/20 07:19:50;;;;;;;12.02;6.93;;;;;;;22.13;42.06;93960.72;4971465;28;20112;-73
2021/08/20 07:22:16;;;;;;;6.65;5.10;;;;;;;22.15;42.68;93961.09;4973276;28;20096;-75
2021/08/20 07:24:41;;;;;;;7.13;5.53;;;;;;;21.96;41.85;93958.72;4971543;28;20046;-75
2021/08/20 07:27:06;;;;;;;10.32;5.32;;;;;;;21.92;41.98;93963.34;4974260;28;20047;-74
2021/08/20 07:29:32;;;;;;;8.00;4.55;;;;;;;21.93;43.32;93948.66;4973737;28;20064;-73
2021/08/20 07:31:57;;;;;;;10.27;4.93;;;;;;;21.99;42.65;93957.97;4974095;28;20038;-74
2021/08/20 07:34:22;;;;;;;10.15;5.05;;;;;;;21.95;42.09;93967.25;4972852;28;20494;-74
2021/08/20 07:36:48;;;;;;;9.32;5.70;;;;;;;22.14;41.98;93959.56;4971440;28;20039;-74
2021/08/20 07:39:13;;;;;;;8.80;4.63;;;;;;;22.30;41.92;93962.72;4970849;28;20034;-74
2021/08/20 07:41:39;;;;;;;10.52;5.20;;;;;;;22.10;42.13;93947.94;4971326;28;20136;-74
2021/08/20 07:44:04;;;;;;;11.73;4.80;;;;;;;22.35;42.23;93952.66;4968615;28;20045;-73
2021/08/20 07:46:30;;;;;;;8.13;4.55;;;;;;;22.16;42.18;93956.47;4969479;28;20026;-73
2021/08/20 07:48:55;;;;;;;9.80;5.15;;;;;;;22.19;43.63;93945.63;4968106;28;20065;-75
2021/08/20 07:51:20;;;;;;;5.53;4.30;;;;;;;22.35;41.35;93941.81;4969362;28;20132;-74
2021/08/20 07:53:46;;;;;;;6.18;4.78;;;;;;;22.15;41.37;93935.94;4971368;28;20047;-74
2021/08/20 07:56:12;;;;;;;6.00;5.00;;;;;;;22.41;41.54;93943.78;4965361;28;20038;-73
2021/08/20 07:58:37;;;;;;;8.32;4.43;;;;;;;22.47;40.99;93939.53;4971154;28;20023;-74
2021/08/20 08:01:02;;;;;;;7.60;5.38;;;;;;;22.56;41.36;93948.06;4968365;28;20138;-73
2021/08/20 08:03:29;;;;;;;15.75;4.82;;;;;;;22.68;41.13;93955.81;4970105;28;20051;-73
2021/08/20 08:05:55;;;;;;;5.60;4.57;;;;;;;22.63;40.67;93939.91;4968555;28;20043;-74
2021/08/20 08:08:20;;;;;;;6.97;4.22;;;;;;;22.66;41.11;93957.38;4970656;28;20038;-74
2021/08/20 08:10:45;;;;;;;8.10;4.78;;;;;;;22.78;40.89;93948.84;4971328;28;20247;-75
2021/08/20 08:13:11;;;;;;;7.35;5.05;;;;;;;22.66;40.82;93952.72;4968417;28;20034;-74
2021/08/20 08:15:36;;;;;;;8.70;4.82;;;;;;;22.73;41.20;93957.38;4968781;28;20598;-73
2021/08/20 08:18:02;;;;;;;6.40;4.97;;;;;;;22.75;41.41;93965.88;4966163;28;20046;-74
2021/08/20 08:20:27;;;;;;;9.25;4.97;;;;;;;22.84;41.18;93958.16;4969852;28;20228;-76
2021/08/20 08:22:52;;;;;;;6.47;5.00;;;;;;;22.91;41.08;93951.97;4969406;28;20038;-74
2021/08/20 08:25:19;;;;;;;5.70;5.07;;;;;;;23.07;42.30;93947.69;4971802;28;20080;-74
2021/08/20 08:28:00;;;;;;;6.82;5.10;;;;;;;23.04;41.19;93950.41;4970142;28;20186;-74
2021/08/20 08:30:33;;;;;;;8.25;5.05;;;;;;;22.82;41.03;93944.22;4968106;28;20169;-73
2021/08/20 08:32:59;;;;;;;7.32;5.10;;;;;;;22.90;41.03;93953.91;4969460;28;20039;-74
2021/08/20 08:35:28;;;;;;;9.98;5.68;;;;;;;23.19;41.18;93951.97;4970162;28;20101;-74
2021/08/20 08:38:04;;;;;;;7.15;4.32;;;;;;;23.23;40.08;93931.03;4970196;28;20389;-74
2021/08/20 08:40:30;;;;;;;8.43;5.22;;;;;;;23.25;40.52;93942.28;4972474;28;20632;-74
2021/08/20 08:42:58;;;;;;;6.22;4.70;;;;;;;23.40;39.57;93929.44;4968996;28;20380;-75
2021/08/20 08:45:25;;;;;;;7.05;4.97;;;;;;;23.39;39.83;93944.19;4971115;28;20057;-75
2021/08/20 08:47:54;;;;;;;7.40;4.70;;;;;;;23.64;39.67;93942.22;4968575;28;20516;-74
2021/08/20 08:50:20;;;;;;;7.78;5.20;;;;;;;23.70;39.32;93929.78;4960618;28;20092;-74
2021/08/20 08:52:45;;;;;;;7.18;5.30;;;;;;;23.88;39.20;93938.63;4963323;28;20042;-74
2021/08/20 08:55:11;;;;;;;6.50;5.00;;;;;;;23.38;39.49;93920.91;4968787;28;20610;-75
2021/08/20 08:57:36;;;;;;;11.77;5.22;;;;;;;23.23;39.83;93930.25;4966791;28;20041;-75
2021/08/20 09:00:04;;;;;;;13.23;5.38;;;;;;;23.30;39.55;93941.09;4958278;28;20820;-75
2021/08/20 09:02:31;;;;;;;7.05;5.00;;;;;;;23.61;39.13;93940.28;4964638;28;20409;-74
2021/08/20 09:05:02;;;;;;;9.02;5.20;;;;;;;23.79;41.07;93941.00;4969235;28;20033;-75
2021/08/20 09:07:29;;;;;;;5.47;4.90;;;;;;;23.86;38.91;93934.75;4951923;28;20033;-75
2021/08/20 09:10:33;;;;;;;6.53;5.18;;;;;;;23.81;39.11;93938.66;4967798;28;20054;-75
2021/08/20 09:13:00;;;;;;;12.07;5.13;;;;;;;23.71;38.98;93936.00;4906578;29;20048;-74
2021/08/20 09:15:31;;;;;;;6.80;4.95;;;;;;;23.62;38.97;93930.19;4913519;29;20590;-74
2021/08/20 09:18:02;;;;;;;7.35;5.70;;;;;;;23.72;39.04;93924.72;4941692;28;20207;-74
2021/08/20 09:20:32;;;;;;;5.35;4.85;;;;;;;23.74;39.14;93927.06;4973324;28;20121;-74
2021/08/20 09:23:15;;;;;;;6.32;4.93;;;;;;;23.94;39.78;93928.13;4970214;28;20042;-74
2021/08/20 09:25:44;;;;;;;7.38;6.38;;;;;;;23.87;38.66;93934.34;4973052;28;20046;-75
2021/08/20 09:28:24;;;;;;;5.72;4.72;;;;;;;23.99;38.41;93928.50;4967734;28;21211;-75
2021/08/20 09:30:59;;;;;;;6.75;5.18;;;;;;;23.96;39.40;93923.84;4986418;28;20034;-75
2021/08/20 09:33:31;;;;;;;5.70;4.90;;;;;;;24.30;38.05;93918.63;4973318;28;20580;-74
2021/08/20 09:36:00;;;;;;;5.88;5.30;;;;;;;24.41;37.85;93899.56;4975248;28;20178;-73
2021/08/20 09:38:28;;;;;;;7.55;5.20;;;;;;;24.52;37.48;93910.34;4973135;28;20096;-75
2021/08/20 09:40:58;;;;;;;6.25;5.65;;;;;;;24.23;37.62;93909.78;4972200;28;20030;-74
2021/08/20 09:43:36;;;;;;;7.55;6.32;;;;;;;24.05;37.89;93909.06;4976922;28;20039;-74
2021/08/20 09:46:10;;;;;;;5.68;4.82;;;;;;;24.15;38.43;93916.44;4973709;28;20085;-74
2021/08/20 09:48:48;;;;;;;6.53;5.63;;;;;;;24.20;38.09;93907.84;4949890;28;20461;-74
2021/08/20 09:51:48;;;;;;;7.43;5.43;;;;;;;24.40;37.77;93914.31;4973371;28;20050;-75
2021/08/20 09:54:26;;;;;;;8.05;5.68;;;;;;;24.41;37.90;93910.41;4973199;28;20901;-74
2021/08/20 09:56:53;;;;;;;9.00;5.93;;;;;;;24.59;37.48;93905.63;4972913;28;20165;-75
2021/08/20 09:59:18;;;;;;;13.88;5.57;;;;;;;24.49;37.02;93895.63;4970420;28;20097;-74
2021/08/20 10:01:46;;;;;;;6.63;5.32;;;;;;;24.41;37.22;93905.75;4972396;28;20034;-74
2021/08/20 10:04:16;;;;;;;8.32;5.63;;;;;;;24.41;37.74;93905.00;4971336;28;20093;-75
2021/08/20 10:06:46;;;;;;;9.43;6.25;;;;;;;24.38;37.20;93906.56;4974613;28;20066;-75
2021/08/20 10:09:14;;;;;;;7.20;5.80;;;;;;;24.44;37.77;93890.63;4975269;28;20046;-74
2021/08/20 10:11:44;;;;;;;7.50;5.50;;;;;;;24.55;37.24;93910.31;4976354;28;20510;-74
2021/08/20 10:14:10;;;;;;;7.78;5.78;;;;;;;24.63;37.49;93900.97;4974552;28;20065;-75
2021/08/20 10:16:37;;;;;;;6.13;4.97;;;;;;;24.63;38.78;93892.03;4974593;28;21030;-74
2021/08/20 10:19:05;;;;;;;6.50;5.90;;;;;;;24.85;37.47;93896.91;4977496;28;20046;-74
2021/08/20 10:21:33;;;;;;;7.68;5.28;;;;;;;24.67;36.76;93898.97;4972030;28;20081;-75
2021/08/20 10:23:59;;;;;;;6.85;5.65;;;;;;;24.68;37.13;93884.22;4976285;28;20400;-75
2021/08/20 10:26:27;;;;;;;6.75;5.68;;;;;;;24.75;36.80;93892.34;4973555;28;20128;-74
2021/08/20 10:28:54;;;;;;;8.05;5.60;;;;;;;24.88;37.79;93889.13;4971163;28;20037;-74
2021/08/20 10:31:21;;;;;;;7.93;6.10;;;;;;;24.49;37.35;93890.19;4975733;28;20314;-75
2021/08/20 10:33:47;;;;;;;6.13;5.43;;;;;;;24.64;37.78;93891.59;4974161;28;20049;-75
2021/08/20 10:36:13;;;;;;;8.77;6.13;;;;;;;24.94;36.23;93885.56;4973884;28;20395;-75
2021/08/20 10:38:38;;;;;;;6.90;6.00;;;;;;;24.96;36.87;93874.28;4975100;28;20104;-74
2021/08/20 10:41:13;;;;;;;9.20;5.93;;;;;;;24.97;36.85;93873.88;4974561;28;20246;-74
2021/08/20 10:43:57;;;;;;;7.35;6.47;;;;;;;24.86;36.51;93873.22;4976367;28;20650;-75
2021/08/20 10:46:32;;;;;;;8.65;6.25;;;;;;;24.80;37.35;93869.38;4975365;28;20046;-74
2021/08/20 10:51:53;;;;;;;8.18;5.97;;;;;;;25.35;36.16;93863.03;4973879;28;20050;-74
2021/08/20 10:54:31;;;;;;;9.57;6.57;;;;;;;25.25;36.17;93862.72;4989745;28;20493;-74
2021/08/20 10:57:01;;;;;;;8.38;5.82;;;;;;;25.40;38.10;93857.16;4968670;28;20042;-76
2021/08/20 10:59:35;;;;;;;9.93;6.68;;;;;;;25.55;36.51;93856.56;4975534;28;20042;-74
2021/08/20 11:02:19;;;;;;;8.73;6.40;;;;;;;25.75;36.79;93864.13;4974747;28;20366;-74
2021/08/20 11:04:57;;;;;;;7.20;6.43;;;;;;;25.95;36.25;93868.56;4971041;28;21197;-74
2021/08/20 11:07:41;;;;;;;7.50;6.35;;;;;;;25.91;36.26;93873.25;4973306;28;20535;-74
2021/08/20 11:10:10;;;;;;;9.23;6.93;;;;;;;25.95;36.10;93862.34;4972703;28;20042;-74
2021/08/20 11:12:43;;;;;;;7.72;6.45;;;;;;;25.93;35.94;93856.50;4973197;28;20038;-75
2021/08/20 11:15:18;;;;;;;11.40;6.75;;;;;;;25.85;34.85;93846.88;4974795;28;20050;-73
2021/08/20 11:18:06;;;;;;;16.08;7.85;;;;;;;25.80;37.32;93850.06;4974427;28;20042;-74
2021/08/20 11:20:37;;;;;;;6.97;6.07;;;;;;;25.56;35.61;93863.56;4989468;28;20058;-74
2021/08/20 11:23:15;;;;;;;7.15;6.45;;;;;;;25.50;36.11;93854.31;4973142;28;20933;-75
2021/08/20 11:25:49;;;;;;;7.50;6.30;;;;;;;25.49;36.00;93852.75;4975972;28;20066;-76
2021/08/20 11:28:28;;;;;;;13.05;7.63;;;;;;;25.54;36.74;93855.03;4972701;28;20050;-74
2021/08/20 11:31:00;;;;;;;9.05;7.43;;;;;;;25.76;36.36;93854.78;4974329;28;20528;-75
2021/08/20 11:33:35;;;;;;;7.43;6.22;;;;;;;25.95;35.95;93846.00;4973018;28;20133;-75
2021/08/20 11:36:17;;;;;;;9.45;7.05;;;;;;;25.90;35.49;93827.38;4974230;28;20759;-74